Time;durP1;ratioP1;P1;durP2;ratioP2;P2;SDS_P1;SDS_P2;PMS_P1;PMS_P2;Temp;Humidity;BMP_temperature;BMP_pressure;BME280_temperature;BME280_humidity;BME280_pressure;Samples;Min_cycle;Max_cycle;Signal;HPM_P1;HPM_P2
2024/01/05 00:02:13;;;;;;;9.10;5.50;;;;;;;1.92;100.00;95579.16;109679;1282;22619;-86
2024/01/05 00:04:40;;;;;;;8.30;6.50;;;;;;;1.96;100.00;95592.11;108453;1282;136988;-86
2024/01/05 00:07:09;;;;;;;10.20;6.20;;;;;;;1.96;100.00;95598.96;108352;1282;25330;-87
2024/01/05 00:09:36;;;;;;;9.40;6.70;;;;;;;1.94;100.00;95601.50;108204;1280;138714;-86
2024/01/05 00:12:03;;;;;;;9.30;6.90;;;;;;;1.90;100.00;95601.08;108353;1281;22639;-86
2024/01/05 00:14:30;;;;;;;9.00;6.10;;;;;;;1.88;100.00;95601.13;108281;1281;22578;-86
2024/01/05 00:16:59;;;;;;;6.50;5.20;;;;;;;1.86;100.00;95605.60;108189;1277;137971;-86
2024/01/05 00:19:25;;;;;;;7.70;6.80;;;;;;;1.84;100.00;95612.81;108356;1277;23276;-86
2024/01/05 00:21:52;;;;;;;8.60;6.30;;;;;;;1.82;100.00;95605.64;108256;1282;138251;-86
2024/01/05 00:24:19;;;;;;;10.60;7.10;;;;;;;1.82;100.00;95599.80;108301;1282;22521;-85
2024/01/05 00:26:45;;;;;;;9.00;7.10;;;;;;;1.84;100.00;95592.08;108248;1279;138294;-85
2024/01/05 00:29:12;;;;;;;7.70;6.80;;;;;;;1.84;100.00;95598.61;108382;1282;22527;-86
2024/01/05 00:31:39;;;;;;;11.10;7.90;;;;;;;1.85;100.00;95606.73;108243;1281;22593;-87
2024/01/05 00:34:06;;;;;;;8.00;6.40;;;;;;;1.85;100.00;95607.03;108310;1282;138411;-87
2024/01/05 00:36:32;;;;;;;9.50;7.00;;;;;;;1.84;100.00;95605.61;108273;1282;22532;-86
2024/01/05 00:38:59;;;;;;;9.60;6.70;;;;;;;1.82;100.00;95599.27;108161;1281;138696;-87
2024/01/05 00:41:26;;;;;;;11.20;7.80;;;;;;;1.83;100.00;95602.63;108245;1281;22610;-87
2024/01/05 00:43:52;;;;;;;8.50;6.30;;;;;;;1.81;100.00;95605.50;108347;1282;25395;-87
2024/01/05 00:46:19;;;;;;;8.80;7.00;;;;;;;1.81;100.00;95612.20;108239;1273;138152;-87
2024/01/05 00:48:46;;;;;;;7.60;6.30;;;;;;;1.78;100.00;95612.25;108344;1277;22537;-86
2024/01/05 00:51:12;;;;;;;9.40;5.60;;;;;;;1.78;100.00;95617.05;108235;1269;138801;-86
2024/01/05 00:53:39;;;;;;;6.30;5.00;;;;;;;1.78;100.00;95620.29;108366;1273;24294;-86
2024/01/05 00:56:06;;;;;;;6.70;5.30;;;;;;;1.77;100.00;95620.07;108373;1281;22555;-86
2024/01/05 00:58:33;;;;;;;6.70;5.10;;;;;;;1.73;100.00;95617.48;108381;1281;138051;-85
2024/01/05 01:00:59;;;;;;;7.10;5.00;;;;;;;1.73;100.00;95621.48;108282;1282;22538;-86
2024/01/05 01:03:26;;;;;;;4.90;4.30;;;;;;;1.73;100.00;95623.51;108202;1282;138334;-87
2024/01/05 01:05:53;;;;;;;4.40;3.90;;;;;;;1.72;100.00;95623.56;108337;1282;23844;-87
2024/01/05 01:08:19;;;;;;;5.70;4.30;;;;;;;1.72;100.00;95634.05;108383;1282;24257;-87
2024/01/05 01:10:47;;;;;;;6.10;4.70;;;;;;;1.69;100.00;95621.67;108228;1282;138052;-86
2024/01/05 01:13:15;;;;;;;6.50;5.00;;;;;;;1.68;100.00;95633.06;108239;1283;25372;-86
2024/01/05 01:15:42;;;;;;;5.60;4.70;;;;;;;1.69;100.00;95628.34;108246;1275;138092;-87
2024/01/05 01:18:08;;;;;;;6.50;5.40;;;;;;;1.70;100.00;95627.06;108326;1283;22550;-86
2024/01/05 01:20:35;;;;;;;7.20;5.50;;;;;;;1.72;100.00;95622.56;108268;1283;22557;-86
2024/01/05 01:23:02;;;;;;;7.40;5.00;;;;;;;1.74;100.00;95624.95;109487;1280;137776;-86
2024/01/05 01:25:28;;;;;;;7.60;5.20;;;;;;;1.76;100.00;95627.84;108192;1283;25399;-86
2024/01/05 01:27:55;;;;;;;8.00;7.00;;;;;;;1.79;100.00;95624.67;108249;1284;138036;-87
2024/01/05 01:30:22;;;;;;;13.70;9.80;;;;;;;1.79;100.00;95616.63;108361;1272;24435;-87
2024/01/05 01:32:48;;;;;;;13.50;10.20;;;;;;;1.79;100.00;95624.49;108106;1280;138355;-86
2024/01/05 01:35:15;;;;;;;13.20;9.30;;;;;;;1.81;100.00;95630.77;108283;1281;22552;-87
2024/01/05 01:37:42;;;;;;;11.70;9.30;;;;;;;1.82;100.00;95635.48;108279;1282;22804;-86
2024/01/05 01:40:09;;;;;;;13.80;9.00;;;;;;;1.83;100.00;95632.73;108252;1282;138338;-86
2024/01/05 01:42:36;;;;;;;15.80;13.10;;;;;;;1.82;100.00;95623.50;108401;1273;22554;-86
2024/01/05 01:45:03;;;;;;;45.10;20.40;;;;;;;1.82;100.00;95616.58;108344;1281;138487;-87
2024/01/05 01:47:30;;;;;;;31.30;16.80;;;;;;;1.84;100.00;95612.78;108409;1277;22549;-86
2024/01/05 01:49:56;;;;;;;23.40;14.80;;;;;;;1.83;100.00;95619.40;108281;1280;22548;-86
2024/01/05 01:52:23;;;;;;;14.20;10.00;;;;;;;1.82;100.00;95622.00;108229;1277;138710;-86
2024/01/05 01:54:50;;;;;;;10.90;8.60;;;;;;;1.83;100.00;95634.88;108227;1282;22534;-86
2024/01/05 01:57:17;;;;;;;16.60;11.20;;;;;;;1.82;100.00;95639.60;108248;1276;139443;-87
2024/01/05 01:59:44;;;;;;;26.30;20.80;;;;;;;1.83;100.00;95636.58;108221;1280;22623;-86
2024/01/05 02:02:12;;;;;;;26.00;18.90;;;;;;;1.83;100.00;95633.17;108312;1278;24304;-86
2024/01/05 02:04:39;;;;;;;14.70;10.70;;;;;;;1.80;100.00;95645.23;108487;1276;138342;-86
2024/01/05 02:07:06;;;;;;;11.50;8.30;;;;;;;1.79;100.00;95649.27;108342;1283;22651;-86
2024/01/05 02:09:33;;;;;;;8.80;6.00;;;;;;;1.79;100.00;95649.09;108138;1278;138398;-86
2024/01/05 02:12:00;;;;;;;8.30;6.20;;;;;;;1.78;100.00;95653.13;108359;1283;23361;-87
2024/01/05 02:14:27;;;;;;;9.00;6.10;;;;;;;1.77;100.00;95656.63;108302;1283;23760;-85
2024/01/05 02:16:55;;;;;;;7.30;6.20;;;;;;;1.78;100.00;95656.35;108205;1281;138487;-86
2024/01/05 02:19:21;;;;;;;9.20;6.70;;;;;;;1.80;100.00;95658.90;108364;1281;22530;-85
2024/01/05 02:21:50;;;;;;;10.80;8.50;;;;;;;1.81;100.00;95656.56;108138;1284;138145;-85
2024/01/05 02:24:17;;;;;;;9.10;6.70;;;;;;;1.83;100.00;95664.08;108902;1280;22548;-86
2024/01/05 02:26:44;;;;;;;9.20;6.00;;;;;;;1.82;100.00;95663.85;108124;1284;138205;-86
2024/01/05 02:29:11;;;;;;;11.40;6.70;;;;;;;1.80;100.00;95666.02;108130;1279;22565;-86
2024/01/05 02:31:37;;;;;;;7.80;6.60;;;;;;;1.81;100.00;95662.36;108317;1277;25361;-86
2024/01/05 02:34:04;;;;;;;7.40;6.20;;;;;;;1.82;100.00;95669.35;108111;1284;137179;-87
2024/01/05 02:36:31;;;;;;;7.90;6.20;;;;;;;1.79;100.00;95670.38;108212;1284;22530;-86
2024/01/05 02:38:57;;;;;;;8.70;5.80;;;;;;;1.77;100.00;95673.45;108147;1281;138212;-86
2024/01/05 02:41:24;;;;;;;6.60;5.30;;;;;;;1.78;100.00;95670.45;108302;1284;22544;-86
2024/01/05 02:43:50;;;;;;;7.60;6.00;;;;;;;1.77;100.00;95669.19;108287;1277;22552;-86
2024/01/05 02:46:17;;;;;;;8.00;7.10;;;;;;;1.78;100.00;95668.49;108228;1281;138247;-86
2024/01/05 02:48:44;;;;;;;7.60;6.30;;;;;;;1.80;100.00;95670.81;108287;1280;22541;-87
2024/01/05 02:51:10;;;;;;;7.50;5.90;;;;;;;1.82;100.00;95670.31;108728;1284;138165;-86
2024/01/05 02:53:37;;;;;;;9.10;6.50;;;;;;;1.85;100.00;95665.44;108239;1284;22543;-87
2024/01/05 02:56:04;;;;;;;8.50;6.70;;;;;;;1.82;100.00;95656.32;108996;1280;22992;-86
2024/01/05 02:58:31;;;;;;;8.20;5.90;;;;;;;1.79;100.00;95651.97;108181;1284;138159;-87
2024/01/05 03:00:58;;;;;;;7.20;5.90;;;;;;;1.79;100.00;95656.60;108276;1274;22513;-87
2024/01/05 03:03:24;;;;;;;7.10;5.50;;;;;;;1.79;100.00;95659.66;108208;1277;138136;-87
2024/01/05 03:05:51;;;;;;;6.90;5.90;;;;;;;1.76;100.00;95658.71;108289;1277;22609;-86
2024/01/05 03:08:17;;;;;;;10.00;7.60;;;;;;;1.74;100.00;95662.48;108334;1280;25439;-86
2024/01/05 03:10:46;;;;;;;8.20;6.40;;;;;;;1.76;100.00;95666.40;108284;1283;138767;-86
2024/01/05 03:13:13;;;;;;;9.80;7.00;;;;;;;1.79;100.00;95679.83;108765;1279;22648;-86
2024/01/05 03:15:39;;;;;;;8.70;6.10;;;;;;;1.80;100.00;95682.63;108309;1276;138036;-86
2024/01/05 03:18:06;;;;;;;9.80;6.80;;;;;;;1.80;100.00;95677.13;108294;1278;22530;-86
2024/01/05 03:20:33;;;;;;;7.70;6.20;;;;;;;1.80;100.00;95668.81;108297;1283;22600;-86
2024/01/05 03:22:59;;;;;;;8.00;5.60;;;;;;;1.82;100.00;95664.90;108284;1282;137839;-86
2024/01/05 03:25:26;;;;;;;7.20;6.10;;;;;;;1.83;100.00;95655.34;108251;1284;25468;-87
2024/01/05 03:27:52;;;;;;;8.10;6.20;;;;;;;1.86;100.00;95654.77;108147;1284;138045;-86
2024/01/05 03:30:19;;;;;;;8.50;5.70;;;;;;;1.82;100.00;95650.17;108205;1280;22538;-86
2024/01/05 03:32:46;;;;;;;6.00;5.40;;;;;;;1.78;100.00;95655.98;108828;1281;138167;-86
2024/01/05 03:35:12;;;;;;;6.90;5.60;;;;;;;1.77;100.00;95651.67;108283;1283;22585;-87
2024/01/05 03:37:39;;;;;;;8.20;5.70;;;;;;;1.77;100.00;95653.52;108259;1283;23266;-86
2024/01/05 03:40:07;;;;;;;8.90;6.20;;;;;;;1.76;100.00;95652.60;108262;1276;137933;-86
2024/01/05 03:42:34;;;;;;;7.80;6.20;;;;;;;1.74;100.00;95657.06;108418;1282;22596;-86
2024/01/05 03:45:00;;;;;;;9.30;6.00;;;;;;;1.69;100.00;95652.08;108195;1277;138560;-86
2024/01/05 03:47:28;;;;;;;11.20;6.90;;;;;;;1.66;100.00;95651.90;109608;1283;22560;-86
2024/01/05 03:49:56;;;;;;;7.60;5.60;;;;;;;1.67;100.00;95656.77;109526;1283;22011;-86
2024/01/05 03:52:23;;;;;;;8.20;6.10;;;;;;;1.68;100.00;95667.70;109413;1283;137076;-85
2024/01/05 03:54:52;;;;;;;8.00;6.20;;;;;;;1.69;100.00;95666.75;109505;1284;22559;-86
2024/01/05 03:57:23;;;;;;;7.20;6.50;;;;;;;1.71;100.00;95668.65;109440;1283;137570;-85
2024/01/05 03:59:50;;;;;;;7.70;5.90;;;;;;;1.69;100.00;95660.92;109499;1283;22539;-86
2024/01/05 04:02:19;;;;;;;7.40;6.10;;;;;;;1.72;100.00;95654.67;109430;1280;22617;-86
2024/01/05 04:04:48;;;;;;;7.50;6.60;;;;;;;1.68;100.00;95649.89;109384;1283;137644;-85
2024/01/05 04:07:16;;;;;;;7.70;6.10;;;;;;;1.71;100.00;95660.56;109607;1282;22547;-86
2024/01/05 04:09:50;;;;;;;8.10;7.10;;;;;;;1.71;100.00;95654.46;109350;1282;138995;-86
2024/01/05 04:12:18;;;;;;;7.90;6.80;;;;;;;1.69;100.00;95648.33;109194;1283;22532;-86
2024/01/05 04:14:45;;;;;;;10.30;9.30;;;;;;;1.74;100.00;95654.36;108282;1281;138152;-86
2024/01/05 04:17:11;;;;;;;9.10;7.40;;;;;;;1.70;100.00;95654.02;108403;1282;22540;-86
2024/01/05 04:19:38;;;;;;;10.20;8.00;;;;;;;1.63;100.00;95657.27;108384;1283;22574;-87
2024/01/05 04:22:05;;;;;;;8.50;7.10;;;;;;;1.56;100.00;95659.84;108818;1284;138160;-86
2024/01/05 04:24:32;;;;;;;8.70;7.10;;;;;;;1.51;100.00;95669.50;108204;1284;23088;-86
2024/01/05 04:26:59;;;;;;;7.90;7.10;;;;;;;1.50;100.00;95671.48;108085;1281;138159;-86
2024/01/05 04:29:25;;;;;;;7.90;6.90;;;;;;;1.52;100.00;95670.50;108328;1277;22546;-86
2024/01/05 04:31:52;;;;;;;9.80;7.70;;;;;;;1.51;100.00;95670.02;108333;1282;22537;-86
2024/01/05 04:34:19;;;;;;;8.90;7.60;;;;;;;1.53;100.00;95671.67;108307;1271;138170;-86
2024/01/05 04:36:45;;;;;;;8.60;7.60;;;;;;;1.55;100.00;95678.17;108250;1282;24293;-86
2024/01/05 04:39:12;;;;;;;7.90;7.10;;;;;;;1.56;100.00;95677.55;108421;1277;138346;-87
2024/01/05 04:41:39;;;;;;;9.20;7.50;;;;;;;1.55;100.00;95679.50;108361;1281;22579;-86
2024/01/05 04:44:05;;;;;;;8.70;7.80;;;;;;;1.55;100.00;95677.69;108279;1281;22550;-86
2024/01/05 04:46:32;;;;;;;8.70;7.80;;;;;;;1.53;100.00;95674.45;108217;1278;138325;-86
2024/01/05 04:48:59;;;;;;;9.50;8.10;;;;;;;1.52;100.00;95678.60;108399;1277;22534;-86
2024/01/05 04:51:26;;;;;;;8.80;7.90;;;;;;;1.53;100.00;95678.00;108153;1281;138161;-86
2024/01/05 04:53:52;;;;;;;8.60;7.80;;;;;;;1.52;100.00;95677.61;108285;1277;22552;-86
2024/01/05 04:56:20;;;;;;;9.40;8.40;;;;;;;1.49;100.00;95676.83;108353;1277;24359;-87
2024/01/05 04:58:46;;;;;;;9.20;8.20;;;;;;;1.51;100.00;95680.45;108268;1277;137901;-87
2024/01/05 05:01:13;;;;;;;11.10;8.80;;;;;;;1.54;100.00;95685.09;108201;1282;22537;-87
2024/01/05 05:03:40;;;;;;;10.10;8.50;;;;;;;1.56;100.00;95685.94;108295;1277;138105;-87
2024/01/05 05:06:06;;;;;;;10.00;8.50;;;;;;;1.56;100.00;95691.41;108281;1277;23246;-87
2024/01/05 05:08:33;;;;;;;9.90;8.10;;;;;;;1.54;100.00;95700.80;108365;1277;24458;-87
2024/01/05 05:11:04;;;;;;;11.40;9.30;;;;;;;1.51;100.00;95709.60;108235;1283;138630;-86
2024/01/05 05:13:30;;;;;;;11.30;10.10;;;;;;;1.47;100.00;95709.78;108261;1283;24669;-86
2024/01/05 05:15:57;;;;;;;13.90;11.30;;;;;;;1.47;100.00;95713.05;108253;1279;138531;-86
2024/01/05 05:18:23;;;;;;;14.30;11.10;;;;;;;1.48;100.00;95718.27;108297;1282;22577;-87
2024/01/05 05:20:50;;;;;;;13.40;11.80;;;;;;;1.46;100.00;95726.77;108289;1277;139442;-87
2024/01/05 05:23:17;;;;;;;13.30;10.80;;;;;;;1.42;100.00;95731.27;108357;1279;22623;-87
2024/01/05 05:25:43;;;;;;;14.00;11.00;;;;;;;1.38;100.00;95730.59;108357;1276;22551;-86
2024/01/05 05:28:10;;;;;;;28.40;15.30;;;;;;;1.36;100.00;95727.40;108197;1277;138525;-84
2024/01/05 05:30:37;;;;;;;111.60;36.60;;;;;;;1.34;100.00;95730.29;108313;1278;22568;-85
2024/01/05 05:33:03;;;;;;;28.20;15.80;;;;;;;1.36;100.00;95731.14;108284;1264;138611;-86
2024/01/05 05:35:30;;;;;;;16.60;13.10;;;;;;;1.34;100.00;95721.78;108334;1280;22513;-86
2024/01/05 05:37:57;;;;;;;15.40;12.40;;;;;;;1.35;100.00;95715.23;108279;1282;22556;-85
2024/01/05 05:40:23;;;;;;;26.80;15.70;;;;;;;1.35;100.00;95714.88;108277;1275;138314;-85
2024/01/05 05:42:50;;;;;;;28.20;16.10;;;;;;;1.36;100.00;95710.15;108273;1279;26448;-85
2024/01/05 05:45:17;;;;;;;68.70;26.90;;;;;;;1.34;100.00;95704.86;108219;1281;138442;-85
2024/01/05 05:47:43;;;;;;;48.40;21.30;;;;;;;1.32;100.00;95708.00;108379;1282;22541;-85
2024/01/05 05:50:13;;;;;;;27.20;16.90;;;;;;;1.33;100.00;95708.02;108447;1281;22579;-85
2024/01/05 05:52:40;;;;;;;17.80;13.40;;;;;;;1.34;100.00;95710.01;108226;1282;138349;-85
2024/01/05 05:55:11;;;;;;;17.60;14.30;;;;;;;1.34;100.00;95713.02;108345;1282;22548;-85
2024/01/05 05:57:41;;;;;;;15.20;13.30;;;;;;;1.34;100.00;95716.84;108226;1277;138438;-85
2024/01/05 06:00:08;;;;;;;14.70;12.00;;;;;;;1.34;100.00;95718.36;108355;1276;22559;-85
2024/01/05 06:02:35;;;;;;;297.80;88.20;;;;;;;1.31;100.00;95716.73;108341;1282;22591;-86
2024/01/05 06:05:02;;;;;;;172.90;56.10;;;;;;;1.30;100.00;95716.52;108175;1282;138403;-86
2024/01/05 06:07:28;;;;;;;56.70;24.50;;;;;;;1.30;100.00;95713.80;108272;1283;23857;-86
2024/01/05 06:09:56;;;;;;;29.00;16.70;;;;;;;1.31;100.00;95704.95;108358;1281;138518;-86
2024/01/05 06:12:26;;;;;;;17.30;13.30;;;;;;;1.33;100.00;95706.00;108611;1282;22531;-86
2024/01/05 06:14:53;;;;;;;19.00;13.30;;;;;;;1.35;100.00;95699.02;108284;1281;139013;-86
2024/01/05 06:17:20;;;;;;;18.90;12.90;;;;;;;1.35;100.00;95700.29;108341;1281;24388;-86
2024/01/05 06:19:47;;;;;;;17.80;13.00;;;;;;;1.36;100.00;95694.13;108537;1281;22527;-87
2024/01/05 06:22:13;;;;;;;15.40;13.70;;;;;;;1.33;100.00;95686.21;108200;1282;138463;-86
2024/01/05 06:24:40;;;;;;;15.70;12.60;;;;;;;1.31;100.00;95681.98;108234;1282;25429;-85
2024/01/05 06:27:07;;;;;;;19.30;13.40;;;;;;;1.29;100.00;95683.13;108302;1282;138752;-85
2024/01/05 06:29:34;;;;;;;15.80;12.90;;;;;;;1.24;100.00;95687.41;108253;1283;22530;-86
2024/01/05 06:32:01;;;;;;;17.60;14.00;;;;;;;1.21;100.00;95692.89;108301;1282;25405;-85
2024/01/05 06:34:28;;;;;;;17.30;13.60;;;;;;;1.18;100.00;95705.01;108285;1282;138691;-85
2024/01/05 06:36:55;;;;;;;100.70;36.30;;;;;;;1.16;100.00;95712.44;108291;1282;23848;-85
2024/01/05 06:39:22;;;;;;;67.00;28.00;;;;;;;1.15;100.00;95718.38;108221;1278;138964;-85
2024/01/05 06:41:48;;;;;;;34.90;20.00;;;;;;;1.14;100.00;95720.17;108389;1282;25324;-85
2024/01/05 06:44:15;;;;;;;40.20;20.60;;;;;;;1.15;100.00;95711.86;108342;1282;22665;-85
2024/01/05 06:46:42;;;;;;;45.20;24.00;;;;;;;1.17;100.00;95704.17;108254;1282;138516;-85
2024/01/05 06:49:08;;;;;;;31.60;20.70;;;;;;;1.17;100.00;95700.94;108287;1278;23304;-86
2024/01/05 06:51:39;;;;;;;24.40;17.20;;;;;;;1.19;100.00;95694.08;108207;1279;138792;-85
2024/01/05 06:54:06;;;;;;;21.50;15.80;;;;;;;1.17;100.00;95688.50;108302;1273;22528;-85
2024/01/05 06:56:33;;;;;;;21.00;16.70;;;;;;;1.14;100.00;95689.17;108239;1282;25449;-85
2024/01/05 06:59:01;;;;;;;22.80;18.70;;;;;;;1.10;100.00;95691.36;108167;1282;138387;-85
2024/01/05 07:01:27;;;;;;;24.50;17.80;;;;;;;1.08;100.00;95694.77;108708;1280;22535;-85
2024/01/05 07:03:54;;;;;;;25.60;19.00;;;;;;;1.07;100.00;95698.11;108283;1277;138631;-85
2024/01/05 07:06:21;;;;;;;25.60;19.90;;;;;;;1.07;100.00;95702.39;108480;1277;22532;-85
2024/01/05 07:08:48;;;;;;;23.20;17.90;;;;;;;1.07;100.00;95694.71;108230;1280;138974;-85
2024/01/05 07:11:24;;;;;;;24.50;20.50;;;;;;;1.05;100.00;95690.25;108294;1281;22540;-85
2024/01/05 07:13:51;;;;;;;27.20;18.90;;;;;;;1.04;100.00;95685.82;108307;1277;23636;-85
2024/01/05 07:16:18;;;;;;;25.30;20.70;;;;;;;1.04;100.00;95690.93;108179;1281;138519;-85
2024/01/05 07:18:46;;;;;;;26.60;19.90;;;;;;;1.04;100.00;95693.43;108384;1282;22530;-85
2024/01/05 07:21:16;;;;;;;53.20;31.10;;;;;;;1.01;100.00;95690.14;109563;1278;138609;-85
2024/01/05 07:23:43;;;;;;;43.10;29.30;;;;;;;1.02;100.00;95690.81;108510;1278;24236;-84
2024/01/05 07:26:10;;;;;;;39.70;26.80;;;;;;;1.03;100.00;95686.87;108374;1282;22611;-85
2024/01/05 07:28:37;;;;;;;29.10;20.90;;;;;;;1.03;100.00;95674.94;108238;1282;138621;-85
2024/01/05 07:31:05;;;;;;;33.00;23.30;;;;;;;1.04;100.00;95666.21;108388;1276;22541;-85
2024/01/05 07:33:32;;;;;;;27.70;20.50;;;;;;;1.05;100.00;95668.16;108123;1277;139147;-85
2024/01/05 07:36:04;;;;;;;30.00;18.90;;;;;;;1.04;100.00;95670.47;108316;1281;22670;-84
2024/01/05 07:38:34;;;;;;;25.30;18.80;;;;;;;1.06;100.00;95674.81;108313;1282;22527;-84
2024/01/05 07:41:01;;;;;;;26.50;18.80;;;;;;;1.07;100.00;95681.79;108187;1278;138652;-83
2024/01/05 07:43:29;;;;;;;28.30;19.40;;;;;;;1.03;100.00;95681.08;108428;1282;22530;-84
2024/01/05 07:45:56;;;;;;;27.20;18.10;;;;;;;1.01;100.00;95669.00;108165;1276;138373;-84
2024/01/05 07:48:23;;;;;;;26.00;19.40;;;;;;;0.99;100.00;95662.36;108217;1282;25259;-84
2024/01/05 07:50:50;;;;;;;28.10;20.30;;;;;;;0.96;100.00;95666.52;108229;1283;138540;-84
2024/01/05 07:53:16;;;;;;;29.00;19.60;;;;;;;0.91;100.00;95671.93;108398;1277;22558;-84
2024/01/05 07:55:43;;;;;;;27.70;19.10;;;;;;;0.89;100.00;95675.34;108271;1282;24263;-84
2024/01/05 07:58:10;;;;;;;26.00;18.30;;;;;;;0.89;100.00;95670.23;108199;1281;138308;-84
2024/01/05 08:00:36;;;;;;;32.40;20.60;;;;;;;0.87;100.00;95668.23;108291;1282;25368;-83
2024/01/05 08:03:08;;;;;;;32.20;21.00;;;;;;;0.88;100.00;95667.16;108683;1282;137673;-84
2024/01/05 08:05:35;;;;;;;21.50;15.20;;;;;;;0.86;100.00;95669.40;109256;1279;22592;-85
2024/01/05 08:08:06;;;;;;;28.90;19.70;;;;;;;0.85;100.00;95667.76;108779;1282;22594;-85
2024/01/05 08:10:35;;;;;;;27.90;19.60;;;;;;;0.84;100.00;95669.19;108246;1278;138395;-83
2024/01/05 08:13:01;;;;;;;26.00;18.20;;;;;;;0.82;100.00;95670.21;108306;1281;25412;-84
2024/01/05 08:15:28;;;;;;;32.70;22.50;;;;;;;0.79;100.00;95661.48;108302;1283;138832;-84
2024/01/05 08:17:56;;;;;;;31.00;21.20;;;;;;;0.77;100.00;95663.58;108229;1262;24263;-84
2024/01/05 08:20:23;;;;;;;26.80;18.10;;;;;;;0.73;100.00;95667.59;108246;1283;25321;-86
2024/01/05 08:22:50;;;;;;;32.10;20.50;;;;;;;0.74;100.00;95666.73;108223;1281;138511;-86
2024/01/05 08:25:16;;;;;;;28.00;17.80;;;;;;;0.74;100.00;95664.48;108353;1282;22525;-85
2024/01/05 08:27:43;;;;;;;35.80;20.60;;;;;;;0.75;100.00;95665.11;108260;1279;138846;-85
2024/01/05 08:30:13;;;;;;;28.20;19.20;;;;;;;0.74;100.00;95667.52;108342;1282;22525;-85
2024/01/05 08:32:41;;;;;;;32.70;22.30;;;;;;;0.73;100.00;95666.27;108234;1281;24463;-85
2024/01/05 08:35:08;;;;;;;30.40;20.80;;;;;;;0.71;100.00;95657.59;108145;1275;138187;-86
2024/01/05 08:37:34;;;;;;;38.80;26.10;;;;;;;0.72;100.00;95658.18;108245;1280;22577;-85
2024/01/05 08:40:01;;;;;;;55.30;29.10;;;;;;;0.73;100.00;95651.95;108251;1282;138777;-85
2024/01/05 08:42:28;;;;;;;35.30;20.70;;;;;;;0.75;100.00;95652.48;108308;1282;22616;-85
2024/01/05 08:44:54;;;;;;;31.10;20.70;;;;;;;0.77;100.00;95651.45;108216;1282;139622;-86
2024/01/05 08:47:22;;;;;;;40.00;23.80;;;;;;;0.78;100.00;95648.24;108500;1282;22625;-85
2024/01/05 08:49:52;;;;;;;50.90;28.40;;;;;;;0.79;100.00;95647.52;109238;1281;22269;-85
2024/01/05 08:52:19;;;;;;;49.70;30.10;;;;;;;0.76;100.00;95646.18;109148;1281;138914;-85
2024/01/05 08:54:45;;;;;;;45.10;27.20;;;;;;;0.82;100.00;95652.67;108782;1282;23453;-84
2024/01/05 08:57:12;;;;;;;53.00;31.40;;;;;;;0.84;100.00;95655.02;108264;1281;138588;-84
2024/01/05 08:59:39;;;;;;;52.80;32.90;;;;;;;0.87;100.00;95652.09;108361;1275;25257;-85
2024/01/05 09:02:06;;;;;;;51.50;32.40;;;;;;;0.90;100.00;95655.67;108260;1281;22556;-84
2024/01/05 09:04:33;;;;;;;52.90;31.80;;;;;;;0.93;100.00;95659.70;108130;1281;138414;-86
2024/01/05 09:06:59;;;;;;;56.20;31.80;;;;;;;0.96;100.00;95661.41;108378;1278;25358;-85
2024/01/05 09:09:27;;;;;;;56.30;33.30;;;;;;;0.99;100.00;95660.18;108150;1277;138685;-86
2024/01/05 09:11:54;;;;;;;58.40;32.90;;;;;;;0.99;100.00;95657.81;108304;1275;22553;-85
2024/01/05 09:14:21;;;;;;;49.30;30.20;;;;;;;0.99;100.00;95660.17;108342;1278;22528;-84
2024/01/05 09:16:48;;;;;;;51.60;30.50;;;;;;;1.01;100.00;95662.05;108273;1277;138487;-84
2024/01/05 09:19:14;;;;;;;48.60;28.10;;;;;;;1.02;100.00;95664.63;108130;1275;22546;-85
2024/01/05 09:21:41;;;;;;;44.50;29.10;;;;;;;1.03;100.00;95663.59;108182;1277;138295;-84
2024/01/05 09:24:08;;;;;;;47.60;29.00;;;;;;;1.04;100.00;95669.39;108376;1282;22527;-85
2024/01/05 09:26:35;;;;;;;43.20;26.60;;;;;;;1.08;100.00;95671.05;108382;1275;22571;-85
2024/01/05 09:29:04;;;;;;;42.10;25.80;;;;;;;1.12;100.00;95676.13;108256;1276;138671;-85
2024/01/05 09:31:31;;;;;;;36.20;24.80;;;;;;;1.16;100.00;95678.19;108343;1283;25666;-84
2024/01/05 09:34:04;;;;;;;45.30;26.60;;;;;;;1.19;100.00;95685.56;108304;1280;138634;-86
2024/01/05 09:36:32;;;;;;;35.80;22.00;;;;;;;1.23;100.00;95689.10;109235;1282;22639;-85
2024/01/05 09:39:00;;;;;;;35.10;21.90;;;;;;;1.29;100.00;95693.27;109160;1282;139543;-85
2024/01/05 09:41:27;;;;;;;37.50;24.90;;;;;;;1.31;100.00;95688.95;109283;1282;22568;-85
2024/01/05 09:43:54;;;;;;;38.90;23.90;;;;;;;1.40;100.00;95696.25;109247;1282;22548;-86
2024/01/05 09:46:21;;;;;;;30.50;20.60;;;;;;;1.47;100.00;95691.67;109214;1278;137764;-86
2024/01/05 09:48:49;;;;;;;35.00;23.70;;;;;;;1.59;100.00;95689.23;109296;1282;22578;-86
2024/01/05 09:51:21;;;;;;;38.60;23.40;;;;;;;1.70;100.00;95687.02;109120;1281;137684;-85
2024/01/05 09:53:48;;;;;;;34.60;22.80;;;;;;;1.83;100.00;95681.33;109279;1283;22511;-85
2024/01/05 09:56:15;;;;;;;33.60;22.80;;;;;;;1.98;100.00;95683.14;109170;1282;22530;-85
2024/01/05 09:58:43;;;;;;;36.50;23.20;;;;;;;2.11;100.00;95682.59;109090;1281;137573;-85
2024/01/05 10:01:21;;;;;;;31.30;21.90;;;;;;;2.25;100.00;95682.23;109305;1283;22576;-86
2024/01/05 10:03:50;;;;;;;36.10;22.80;;;;;;;2.45;100.00;95682.74;109012;1284;137609;-85
2024/01/05 10:06:17;;;;;;;37.60;25.80;;;;;;;2.61;100.00;95680.27;108718;1280;22559;-86
2024/01/05 10:08:44;;;;;;;38.50;25.80;;;;;;;2.78;100.00;95677.92;108161;1283;138820;-86
2024/01/05 10:11:12;;;;;;;40.30;24.70;;;;;;;2.94;100.00;95680.80;109248;1282;22592;-86
2024/01/05 10:13:52;;;;;;;42.40;26.80;;;;;;;3.06;100.00;95688.86;108182;1284;25448;-86
2024/01/05 10:16:23;;;;;;;40.40;25.20;;;;;;;3.18;100.00;95687.30;108101;1280;138448;-85
2024/01/05 10:18:50;;;;;;;39.90;23.60;;;;;;;3.34;100.00;95683.70;108229;1283;22679;-83
2024/01/05 10:21:18;;;;;;;18.70;11.30;;;;;;;3.51;100.00;95678.35;108158;1283;138555;-84
2024/01/05 10:23:48;;;;;;;24.20;15.00;;;;;;;3.68;100.00;95679.40;108301;1280;24500;-85
2024/01/05 10:26:21;;;;;;;17.00;11.00;;;;;;;3.78;100.00;95678.83;109269;1280;23764;-86
2024/01/05 10:28:49;;;;;;;12.00;6.80;;;;;;;3.91;100.00;95671.02;109257;1281;137802;-86
2024/01/05 10:31:18;;;;;;;10.00;5.40;;;;;;;4.08;100.00;95670.05;109395;1276;22576;-86
2024/01/05 10:33:56;;;;;;;8.00;4.40;;;;;;;4.22;100.00;95668.65;109317;1278;137139;-86
2024/01/05 10:36:24;;;;;;;8.90;6.10;;;;;;;4.34;100.00;95666.27;109410;1281;26220;-85
2024/01/05 10:38:52;;;;;;;10.60;5.60;;;;;;;4.49;100.00;95665.77;109162;1275;137456;-86
2024/01/05 10:41:23;;;;;;;19.80;14.20;;;;;;;4.60;100.00;95668.56;109170;1282;22733;-86
2024/01/05 10:43:50;;;;;;;18.60;9.30;;;;;;;4.66;100.00;95664.63;108851;1279;22698;-86
2024/01/05 10:46:20;;;;;;;8.00;5.40;;;;;;;4.77;100.00;95670.19;108248;1282;138360;-85
2024/01/05 10:48:47;;;;;;;7.80;5.60;;;;;;;4.86;100.00;95662.83;108264;1275;25464;-86
2024/01/05 10:51:19;;;;;;;12.20;6.60;;;;;;;4.93;100.00;95661.15;108202;1282;138124;-86
2024/01/05 10:53:47;;;;;;;6.90;3.50;;;;;;;4.98;100.00;95654.86;108360;1281;22578;-87
2024/01/05 10:56:14;;;;;;;10.20;5.30;;;;;;;5.00;100.00;95653.79;109613;1277;23437;-86
2024/01/05 10:58:42;;;;;;;6.40;3.60;;;;;;;5.03;100.00;95650.88;108185;1282;138227;-85
2024/01/05 11:01:09;;;;;;;8.50;4.30;;;;;;;5.10;100.00;95652.42;108404;1282;22515;-86
2024/01/05 11:03:39;;;;;;;7.10;3.10;;;;;;;5.16;100.00;95649.48;108150;1282;137987;-86
2024/01/05 11:06:08;;;;;;;5.10;2.60;;;;;;;5.20;100.00;95644.23;108451;1282;22535;-87
2024/01/05 11:08:57;;;;;;;4.50;2.80;;;;;;;5.23;100.00;95641.77;108291;1282;22534;-86
2024/01/05 11:11:48;;;;;;;4.00;2.20;;;;;;;5.26;100.00;95636.52;108396;1277;22523;-86
2024/01/05 11:14:30;;;;;;;4.60;2.90;;;;;;;5.30;100.00;95629.02;108335;1282;22527;-86